Time;durP1;ratioP1;P1;durP2;ratioP2;P2;SDS_P1;SDS_P2;PMS_P1;PMS_P2;Temp;Humidity;BMP_temperature;BMP_pressure;BME280_temperature;BME280_humidity;BME280_pressure;Samples;Min_cycle;Max_cycle;Signal;HPM_P1;HPM_P2
2021/05/22 00:00:59;;;;;;;3.43;2.20;;;11.80;98.30;;;;;;5010570;28;21044;-51
2021/05/22 00:03:26;;;;;;;4.40;0.83;;;11.80;98.70;;;;;;5011088;28;20628;-50
2021/05/22 00:05:53;;;;;;;3.30;1.53;;;11.90;98.70;;;;;;5012004;28;20719;-50
2021/05/22 00:08:19;;;;;;;3.23;1.73;;;11.90;98.50;;;;;;5011438;28;20775;-50
2021/05/22 00:10:47;;;;;;;4.20;1.77;;;11.90;98.50;;;;;;5011587;28;20736;-50
2021/05/22 00:13:15;;;;;;;5.40;2.50;;;11.90;98.60;;;;;;5011467;28;20639;-50
2021/05/22 00:15:42;;;;;;;2.43;1.57;;;11.90;98.90;;;;;;5012207;28;21168;-49
2021/05/22 00:18:09;;;;;;;5.30;1.97;;;11.90;99.10;;;;;;5012017;28;20685;-50
2021/05/22 00:20:36;;;;;;;3.50;1.27;;;11.90;98.70;;;;;;5005716;28;20621;-50
2021/05/22 00:23:02;;;;;;;4.27;1.30;;;11.80;98.60;;;;;;4996019;28;20620;-49
2021/05/22 00:25:29;;;;;;;4.40;1.73;;;11.70;99.00;;;;;;5011976;28;20660;-50
2021/05/22 00:27:57;;;;;;;3.73;1.70;;;11.70;99.40;;;;;;5012023;28;20694;-49
2021/05/22 00:30:24;;;;;;;3.43;1.13;;;11.80;99.70;;;;;;5011996;28;20663;-49
2021/05/22 00:32:50;;;;;;;3.03;1.50;;;11.90;99.90;;;;;;5011894;28;20790;-49
2021/05/22 00:35:17;;;;;;;2.33;1.50;;;12.00;99.40;;;;;;5012340;28;20821;-50
2021/05/22 00:37:44;;;;;;;4.03;1.97;;;12.00;98.80;;;;;;5010823;28;20625;-52
2021/05/22 00:40:11;;;;;;;4.30;1.60;;;12.00;98.10;;;;;;5010167;28;20632;-53
2021/05/22 00:42:40;;;;;;;4.23;1.23;;;11.90;97.60;;;;;;5009739;28;20631;-49
2021/05/22 00:45:13;;;;;;;1.27;1.10;;;11.90;98.00;;;;;;5009874;28;20656;-56
2021/05/22 00:47:40;;;;;;;4.10;1.80;;;11.90;98.20;;;;;;5009006;28;20636;-50
2021/05/22 00:50:09;;;;;;;2.33;1.33;;;11.90;97.90;;;;;;5010323;28;20684;-50
2021/05/22 00:52:36;;;;;;;1.50;1.00;;;12.00;97.70;;;;;;5010434;28;20709;-50
2021/05/22 00:55:03;;;;;;;3.07;1.03;;;12.10;97.80;;;;;;5009870;28;20718;-49
2021/05/22 00:57:30;;;;;;;1.73;1.50;;;12.10;97.70;;;;;;5009812;28;20627;-50
2021/05/22 00:59:57;;;;;;;3.40;1.63;;;12.10;97.90;;;;;;5009648;28;20635;-50
2021/05/22 01:02:26;;;;;;;28.67;2.03;;;12.10;98.20;;;;;;5009958;28;20628;-49
2021/05/22 01:04:53;;;;;;;1.80;1.70;;;12.20;98.30;;;;;;5009215;28;20710;-49
2021/05/22 01:07:20;;;;;;;2.60;1.30;;;12.20;98.30;;;;;;5008934;28;20640;-49
2021/05/22 01:09:47;;;;;;;3.87;1.43;;;12.10;98.30;;;;;;5010333;28;20661;-50
2021/05/22 01:12:14;;;;;;;2.83;1.23;;;12.10;98.40;;;;;;5009737;28;20658;-50
2021/05/22 01:14:42;;;;;;;1.57;1.00;;;12.10;98.50;;;;;;5009790;28;20620;-50
2021/05/22 01:17:09;;;;;;;3.10;1.53;;;12.20;98.50;;;;;;5007341;28;20720;-50
2021/05/22 01:19:41;;;;;;;1.90;1.37;;;12.10;98.20;;;;;;5009912;28;20685;-50
2021/05/22 01:22:07;;;;;;;4.37;1.77;;;12.10;98.00;;;;;;5009413;28;20650;-50
2021/05/22 01:24:38;;;;;;;2.93;1.30;;;12.10;98.30;;;;;;5007900;28;20625;-50
2021/05/22 01:27:06;;;;;;;1.70;1.20;;;12.10;98.10;;;;;;5009491;28;20623;-50
2021/05/22 01:29:33;;;;;;;3.03;1.43;;;12.20;98.10;;;;;;5009281;28;20693;-50
2021/05/22 01:31:59;;;;;;;2.20;1.67;;;12.20;97.90;;;;;;5009287;28;21094;-49
2021/05/22 01:34:26;;;;;;;3.83;1.63;;;12.20;97.90;;;;;;5009058;28;20631;-50
2021/05/22 01:36:56;;;;;;;2.43;1.50;;;12.20;97.90;;;;;;5000114;28;20737;-50
2021/05/22 01:39:22;;;;;;;2.00;1.13;;;12.10;97.80;;;;;;5009232;28;20636;-50
2021/05/22 01:41:49;;;;;;;2.63;1.40;;;12.10;97.70;;;;;;5009529;28;20682;-49
2021/05/22 01:44:19;;;;;;;1.63;1.50;;;12.10;97.90;;;;;;5009733;28;20731;-49
2021/05/22 01:46:47;;;;;;;1.33;1.23;;;12.00;98.00;;;;;;5009827;28;20713;-50
2021/05/22 01:49:13;;;;;;;3.07;1.30;;;12.00;98.10;;;;;;5008694;28;20627;-50
2021/05/22 01:51:40;;;;;;;2.30;1.57;;;12.00;98.10;;;;;;5009435;28;20660;-49
2021/05/22 01:54:07;;;;;;;4.00;1.70;;;11.90;97.90;;;;;;5009566;28;20633;-50
2021/05/22 01:56:34;;;;;;;3.60;1.80;;;11.90;97.90;;;;;;5009004;28;20786;-50
2021/05/22 01:59:01;;;;;;;1.90;1.43;;;11.90;97.90;;;;;;5009249;28;20681;-49
2021/05/22 02:01:29;;;;;;;1.67;1.03;;;11.90;97.80;;;;;;5008924;28;21393;-50
2021/05/22 02:03:57;;;;;;;5.90;1.27;;;11.90;97.70;;;;;;5009418;28;21267;-50
2021/05/22 02:06:25;;;;;;;1.97;1.87;;;11.90;97.80;;;;;;5008898;28;20652;-50
2021/05/22 02:08:53;;;;;;;1.20;0.77;;;11.90;97.90;;;;;;5008970;28;20635;-50
2021/05/22 02:11:20;;;;;;;1.77;1.33;;;11.90;97.70;;;;;;5009370;28;20664;-50
2021/05/22 02:13:47;;;;;;;2.50;1.30;;;12.00;97.50;;;;;;5009525;28;20731;-51
2021/05/22 02:16:14;;;;;;;3.13;1.63;;;11.90;97.60;;;;;;5011983;28;20735;-50
2021/05/22 02:18:42;;;;;;;1.73;0.80;;;11.90;97.60;;;;;;5017610;28;20697;-51
2021/05/22 02:21:09;;;;;;;2.80;1.37;;;11.90;97.60;;;;;;4999260;28;20628;-50
2021/05/22 02:23:46;;;;;;;4.03;1.47;;;11.80;97.50;;;;;;5025447;28;21139;-50
2021/05/22 02:26:13;;;;;;;3.07;1.60;;;11.80;97.50;;;;;;5012549;28;20670;-50
2021/05/22 02:28:40;;;;;;;3.40;1.37;;;11.80;97.50;;;;;;5009238;28;20663;-49
2021/05/22 02:31:07;;;;;;;2.80;1.23;;;11.80;97.60;;;;;;5008104;28;20745;-50
2021/05/22 02:33:34;;;;;;;2.60;1.23;;;11.80;97.60;;;;;;5009385;28;20644;-50
2021/05/22 02:36:03;;;;;;;2.80;1.30;;;11.80;97.50;;;;;;5012195;28;20664;-49
2021/05/22 02:38:32;;;;;;;1.70;1.60;;;11.70;97.40;;;;;;5012852;28;20991;-50
2021/05/22 02:41:00;;;;;;;1.93;1.40;;;11.70;97.60;;;;;;5011995;28;20647;-49
2021/05/22 02:43:26;;;;;;;3.50;1.70;;;11.70;97.60;;;;;;5012749;28;21207;-50
2021/05/22 02:45:53;;;;;;;4.20;1.37;;;11.70;97.80;;;;;;5012236;28;20654;-51
2021/05/22 02:48:20;;;;;;;5.30;1.83;;;11.70;98.00;;;;;;5012677;28;20635;-49
2021/05/22 02:50:49;;;;;;;2.17;1.63;;;11.70;97.90;;;;;;5012750;28;20664;-50
2021/05/22 02:53:17;;;;;;;5.27;1.63;;;11.80;97.90;;;;;;5012369;28;20706;-49
2021/05/22 02:55:43;;;;;;;4.40;1.63;;;11.80;98.00;;;;;;5012662;28;20687;-49
2021/05/22 02:58:10;;;;;;;8.43;1.90;;;11.80;97.70;;;;;;5012013;28;20693;-49
2021/05/22 03:00:37;;;;;;;5.03;1.37;;;11.80;97.60;;;;;;5011866;28;20976;-49
2021/05/22 03:03:04;;;;;;;3.33;1.53;;;11.80;97.70;;;;;;5012212;28;20766;-49
2021/05/22 03:05:31;;;;;;;1.70;1.00;;;11.90;97.60;;;;;;5012658;28;20674;-49
2021/05/22 03:07:58;;;;;;;2.30;1.00;;;11.90;97.50;;;;;;5012377;28;20956;-49
2021/05/22 03:10:26;;;;;;;1.90;1.43;;;11.90;97.40;;;;;;5012275;28;20702;-49
2021/05/22 03:12:53;;;;;;;3.80;1.43;;;11.90;97.30;;;;;;5012350;28;20664;-49
2021/05/22 03:15:20;;;;;;;0.93;0.70;;;11.90;97.20;;;;;;5011537;28;20752;-49
2021/05/22 03:17:46;;;;;;;2.93;1.37;;;11.80;97.00;;;;;;5011965;28;20624;-49
2021/05/22 03:20:13;;;;;;;4.10;1.40;;;11.80;97.00;;;;;;5011844;28;21271;-50
2021/05/22 03:22:41;;;;;;;4.17;1.50;;;11.70;97.00;;;;;;5012081;28;20615;-49
2021/05/22 03:25:08;;;;;;;3.20;0.90;;;11.60;96.90;;;;;;5011961;28;20713;-49
2021/05/22 03:27:37;;;;;;;3.33;1.43;;;11.70;97.10;;;;;;5011157;28;20623;-50
2021/05/22 03:30:04;;;;;;;5.77;1.77;;;11.60;97.10;;;;;;5011700;28;20659;-50
2021/05/22 03:32:31;;;;;;;3.13;2.10;;;11.60;97.20;;;;;;5011495;28;21001;-49
2021/05/22 03:34:58;;;;;;;3.43;1.70;;;11.50;97.20;;;;;;5011555;28;20661;-50
2021/05/22 03:37:25;;;;;;;4.40;2.23;;;11.50;97.20;;;;;;5011663;28;21071;-49
2021/05/22 03:39:51;;;;;;;6.60;1.70;;;11.50;97.40;;;;;;5011865;28;22299;-50
2021/05/22 03:42:18;;;;;;;5.33;1.47;;;11.50;97.50;;;;;;5011889;28;20619;-49
2021/05/22 03:44:46;;;;;;;7.07;1.93;;;11.50;97.60;;;;;;5010998;28;20960;-50
2021/05/22 03:47:13;;;;;;;2.80;1.50;;;11.40;97.50;;;;;;5010647;28;20627;-50
2021/05/22 03:49:39;;;;;;;6.23;1.33;;;11.30;97.60;;;;;;5010813;28;20619;-50
2021/05/22 03:52:06;;;;;;;3.07;1.53;;;11.40;97.80;;;;;;5011412;28;20737;-49
2021/05/22 03:54:33;;;;;;;3.57;2.10;;;11.30;97.80;;;;;;5011266;28;20763;-50
2021/05/22 03:56:59;;;;;;;3.30;1.83;;;11.40;97.90;;;;;;5011547;28;21157;-51
2021/05/22 03:59:26;;;;;;;2.87;1.53;;;11.30;97.90;;;;;;5011287;28;20627;-50
2021/05/22 04:01:54;;;;;;;4.60;1.50;;;11.30;97.90;;;;;;5010971;28;20694;-50
2021/05/22 04:04:20;;;;;;;3.43;1.67;;;11.30;97.90;;;;;;5011411;28;20628;-50
2021/05/22 04:06:47;;;;;;;3.80;2.00;;;11.40;98.00;;;;;;5011315;28;20664;-50
2021/05/22 04:09:14;;;;;;;1.63;1.53;;;11.40;97.90;;;;;;5010989;28;20694;-50
2021/05/22 04:11:41;;;;;;;3.93;1.87;;;11.40;97.80;;;;;;5011207;28;21053;-50
2021/05/22 04:14:07;;;;;;;3.23;1.30;;;11.40;97.70;;;;;;5010928;28;20632;-49
2021/05/22 04:16:34;;;;;;;3.40;1.67;;;11.40;97.70;;;;;;5011533;28;20709;-50
2021/05/22 04:19:03;;;;;;;2.80;1.57;;;11.50;97.80;;;;;;5010565;28;20623;-51
2021/05/22 04:21:29;;;;;;;2.40;1.53;;;11.60;97.90;;;;;;5010680;28;21042;-50
2021/05/22 04:23:56;;;;;;;4.80;1.30;;;11.60;97.70;;;;;;5010984;28;20709;-50
2021/05/22 04:26:23;;;;;;;2.50;1.67;;;11.60;97.40;;;;;;5011105;28;20682;-50
2021/05/22 04:28:49;;;;;;;2.93;2.47;;;11.60;97.40;;;;;;5008621;28;20643;-51
2021/05/22 04:31:16;;;;;;;2.40;1.80;;;11.60;97.40;;;;;;5008043;28;20653;-50
2021/05/22 04:33:43;;;;;;;4.50;1.57;;;11.60;97.20;;;;;;5010789;28;20675;-49
2021/05/22 04:36:10;;;;;;;2.80;1.40;;;11.70;97.20;;;;;;5010333;28;20659;-50
2021/05/22 04:38:37;;;;;;;4.43;1.40;;;11.70;97.30;;;;;;5010685;28;20704;-50
2021/05/22 04:41:06;;;;;;;5.60;1.40;;;11.70;97.30;;;;;;5010737;28;20709;-50
2021/05/22 04:43:33;;;;;;;3.23;2.10;;;11.70;97.20;;;;;;5010925;28;20636;-50
2021/05/22 04:46:00;;;;;;;3.83;1.73;;;11.70;97.10;;;;;;5010559;28;20687;-50
2021/05/22 04:48:26;;;;;;;4.20;1.33;;;11.70;97.30;;;;;;5009895;28;20628;-50
2021/05/22 04:50:55;;;;;;;3.90;1.73;;;11.70;97.20;;;;;;5010412;28;20682;-49
2021/05/22 04:53:23;;;;;;;1.57;1.43;;;11.70;97.20;;;;;;5010640;28;20727;-50
2021/05/22 04:55:50;;;;;;;4.20;2.40;;;11.70;97.10;;;;;;5009318;28;21087;-50
2021/05/22 04:58:17;;;;;;;5.43;1.90;;;11.80;97.00;;;;;;5008902;28;21064;-50
2021/05/22 05:00:43;;;;;;;3.60;1.70;;;11.80;96.90;;;;;;5010785;28;20985;-49
2021/05/22 05:03:10;;;;;;;1.87;1.30;;;11.80;96.80;;;;;;5010648;28;20627;-50
2021/05/22 05:05:37;;;;;;;5.23;1.70;;;11.80;96.90;;;;;;5011365;28;21161;-49
2021/05/22 05:08:04;;;;;;;8.50;2.20;;;11.90;96.50;;;;;;5010727;28;20671;-49
2021/05/22 05:10:32;;;;;;;3.30;1.50;;;11.90;96.40;;;;;;5010503;28;20627;-49
2021/05/22 05:12:59;;;;;;;4.47;1.73;;;11.90;96.50;;;;;;5007031;28;20706;-50
2021/05/22 05:15:25;;;;;;;4.73;1.77;;;11.90;96.60;;;;;;5004149;28;20684;-49
2021/05/22 05:17:52;;;;;;;6.13;3.70;;;12.00;96.70;;;;;;5004783;28;20710;-49
2021/05/22 05:20:19;;;;;;;2.50;1.73;;;12.10;96.60;;;;;;5004331;28;20747;-50
2021/05/22 05:22:50;;;;;;;1.93;1.50;;;12.10;96.60;;;;;;5010201;28;20632;-50
2021/05/22 05:25:17;;;;;;;4.80;2.57;;;12.10;96.50;;;;;;5008600;28;20833;-49
2021/05/22 05:27:44;;;;;;;12.27;2.87;;;12.10;96.60;;;;;;5008874;28;21269;-50
2021/05/22 05:30:12;;;;;;;4.53;1.67;;;12.10;96.10;;;;;;4998250;28;20706;-49
2021/05/22 05:32:39;;;;;;;2.07;1.80;;;12.10;96.20;;;;;;5004691;28;21097;-50
2021/05/22 05:35:09;;;;;;;2.03;1.40;;;12.10;96.40;;;;;;5000792;28;20675;-51
2021/05/22 05:37:36;;;;;;;7.07;4.27;;;12.10;96.40;;;;;;5005768;28;20632;-51
2021/05/22 05:40:03;;;;;;;8.20;1.80;;;12.20;96.60;;;;;;5000653;28;20639;-50
2021/05/22 05:42:30;;;;;;;4.40;1.07;;;12.20;96.50;;;;;;5001807;28;20641;-48
2021/05/22 05:44:58;;;;;;;1.90;1.50;;;12.20;96.20;;;;;;5000853;28;20664;-48
2021/05/22 05:47:24;;;;;;;1.60;1.33;;;12.20;96.20;;;;;;5012503;28;20629;-51
2021/05/22 05:49:51;;;;;;;4.03;1.87;;;12.30;96.40;;;;;;5018081;28;20681;-49
2021/05/22 05:52:18;;;;;;;3.83;1.83;;;12.30;96.20;;;;;;5029181;28;21214;-48
2021/05/22 05:54:44;;;;;;;7.70;2.10;;;12.30;96.00;;;;;;5014166;28;21024;-48
2021/05/22 05:57:11;;;;;;;10.40;2.10;;;12.30;95.90;;;;;;5010764;28;20640;-48
2021/05/22 05:59:38;;;;;;;2.70;1.40;;;12.40;95.90;;;;;;5017210;28;20750;-49
2021/05/22 06:02:05;;;;;;;6.07;1.60;;;12.40;95.90;;;;;;5022079;28;20624;-49
2021/05/22 06:04:32;;;;;;;3.10;2.00;;;12.40;95.70;;;;;;5010104;28;20669;-48
2021/05/22 06:06:59;;;;;;;2.00;1.23;;;12.50;95.80;;;;;;5010924;28;20658;-49
2021/05/22 06:09:26;;;;;;;2.83;1.87;;;12.50;95.80;;;;;;5020264;28;20678;-49
2021/05/22 06:11:52;;;;;;;4.50;1.87;;;12.50;95.50;;;;;;5013204;28;20664;-49
2021/05/22 06:14:27;;;;;;;6.23;2.20;;;12.50;95.30;;;;;;5030024;28;20681;-49
2021/05/22 06:16:53;;;;;;;4.00;1.57;;;12.50;95.30;;;;;;5022080;28;20709;-49
2021/05/22 06:19:21;;;;;;;3.93;1.50;;;12.60;95.20;;;;;;5028922;28;20725;-48
2021/05/22 06:21:48;;;;;;;2.20;1.30;;;12.60;94.80;;;;;;5018739;28;20636;-51
2021/05/22 06:24:14;;;;;;;4.03;1.43;;;12.60;94.60;;;;;;5013177;28;20701;-48
2021/05/22 06:26:41;;;;;;;5.93;2.33;;;12.60;94.30;;;;;;5013293;28;20705;-48
2021/05/22 06:29:08;;;;;;;7.50;1.93;;;12.50;93.70;;;;;;5013138;28;20627;-49
2021/05/22 06:31:35;;;;;;;4.50;2.30;;;12.60;92.70;;;;;;5016584;28;20632;-50
2021/05/22 06:34:01;;;;;;;2.80;1.73;;;12.60;92.50;;;;;;5019994;28;20628;-49
2021/05/22 06:36:30;;;;;;;5.83;1.47;;;12.70;91.80;;;;;;5012495;28;20777;-50
2021/05/22 06:38:57;;;;;;;7.63;2.00;;;12.70;91.70;;;;;;5010152;28;20926;-50
2021/05/22 06:41:23;;;;;;;5.03;1.07;;;12.90;91.40;;;;;;5012151;28;20632;-50
2021/05/22 06:43:51;;;;;;;4.90;1.60;;;13.00;91.10;;;;;;5013103;28;20746;-50
2021/05/22 06:49:02;;;;;;;6.00;3.60;;;13.10;90.10;;;;;;5012986;28;20588;-50
2021/05/22 06:51:30;;;;;;;5.70;1.77;;;13.10;90.00;;;;;;5012594;28;20690;-50
2021/05/22 06:53:57;;;;;;;4.60;1.60;;;13.10;89.70;;;;;;5011910;28;20643;-50
2021/05/22 06:56:24;;;;;;;4.53;1.87;;;13.10;90.40;;;;;;5011916;28;21302;-50
2021/05/22 06:58:51;;;;;;;8.03;1.93;;;13.10;89.40;;;;;;5023014;28;21029;-50
2021/05/22 07:01:17;;;;;;;2.73;1.00;;;13.10;88.70;;;;;;5024949;28;20942;-49
2021/05/22 07:03:44;;;;;;;7.07;2.10;;;13.10;89.10;;;;;;5010516;28;20631;-49
2021/05/22 07:06:12;;;;;;;10.20;2.07;;;13.20;89.00;;;;;;4993024;28;21018;-49
2021/05/22 07:08:40;;;;;;;3.03;2.00;;;13.20;88.50;;;;;;4998900;28;20627;-49
2021/05/22 07:11:06;;;;;;;6.10;1.53;;;13.20;87.70;;;;;;5011229;28;20674;-49
2021/05/22 07:13:33;;;;;;;4.53;1.80;;;13.20;87.30;;;;;;5010898;28;20663;-50
2021/05/22 07:16:00;;;;;;;4.77;1.70;;;13.20;88.50;;;;;;5012573;28;20667;-50
2021/05/22 07:18:26;;;;;;;6.07;1.53;;;13.20;88.50;;;;;;5011558;28;20705;-49
2021/05/22 07:20:53;;;;;;;9.93;1.83;;;13.40;89.30;;;;;;5009977;28;20697;-49
2021/05/22 07:23:20;;;;;;;2.93;1.13;;;13.50;86.90;;;;;;5012123;28;20641;-49
2021/05/22 07:25:48;;;;;;;4.50;1.40;;;13.50;86.50;;;;;;5011916;28;20802;-49
2021/05/22 07:28:16;;;;;;;3.37;1.50;;;13.60;85.90;;;;;;5012349;28;20643;-49
2021/05/22 07:30:42;;;;;;;4.50;1.97;;;13.60;85.40;;;;;;5012068;28;20647;-49
2021/05/22 07:33:09;;;;;;;5.20;2.10;;;13.80;87.50;;;;;;5011563;28;20824;-49
2021/05/22 07:35:36;;;;;;;2.93;2.10;;;14.10;85.40;;;;;;5011071;28;20671;-50
2021/05/22 07:38:03;;;;;;;4.80;1.50;;;14.40;84.70;;;;;;5011438;28;20632;-49
2021/05/22 07:40:30;;;;;;;3.03;1.50;;;14.60;81.20;;;;;;5010337;28;20655;-51
2021/05/22 07:42:57;;;;;;;4.07;2.20;;;14.70;82.40;;;;;;5010975;28;20628;-49
2021/05/22 07:45:24;;;;;;;4.17;1.80;;;14.80;80.00;;;;;;5011606;28;20706;-51
2021/05/22 07:47:51;;;;;;;4.63;1.60;;;15.00;79.30;;;;;;5008171;28;20636;-50
2021/05/22 07:50:17;;;;;;;4.83;1.87;;;14.90;77.60;;;;;;5010956;28;20917;-49
2021/05/22 07:52:44;;;;;;;5.83;1.83;;;14.80;77.70;;;;;;5010622;28;21023;-50
2021/05/22 07:55:11;;;;;;;2.00;1.33;;;14.50;78.80;;;;;;5010861;28;21277;-50
2021/05/22 07:57:38;;;;;;;2.70;1.90;;;14.40;79.30;;;;;;5011105;28;20681;-50
2021/05/22 08:00:07;;;;;;;6.80;2.20;;;14.20;78.90;;;;;;5010664;28;21334;-49
2021/05/22 08:02:34;;;;;;;6.57;1.33;;;14.10;80.10;;;;;;5010704;28;20628;-50
2021/05/22 08:05:00;;;;;;;6.03;1.40;;;14.00;79.80;;;;;;5010619;28;20733;-49
2021/05/22 08:07:29;;;;;;;3.10;1.40;;;13.90;79.20;;;;;;4989498;28;20707;-49
2021/05/22 08:09:56;;;;;;;2.37;1.33;;;13.80;79.00;;;;;;5004693;28;21141;-50
2021/05/22 08:12:22;;;;;;;2.30;0.90;;;13.70;79.30;;;;;;5010947;28;20714;-49
2021/05/22 08:14:50;;;;;;;3.93;1.40;;;13.70;79.10;;;;;;5010663;28;20694;-49
2021/05/22 08:17:18;;;;;;;2.73;1.07;;;13.60;79.00;;;;;;5015061;28;20716;-49
2021/05/22 08:19:45;;;;;;;3.00;1.43;;;13.80;79.80;;;;;;5011374;28;20678;-50
2021/05/22 08:22:11;;;;;;;3.80;1.70;;;13.80;78.80;;;;;;5026696;28;21149;-50
2021/05/22 08:24:38;;;;;;;3.50;1.47;;;13.90;79.10;;;;;;5029506;28;20634;-49
2021/05/22 08:27:05;;;;;;;4.07;2.20;;;14.00;78.50;;;;;;5008378;28;20715;-49
2021/05/22 08:29:32;;;;;;;2.40;1.30;;;14.10;78.40;;;;;;5008421;28;20706;-51
2021/05/22 08:31:59;;;;;;;2.03;0.70;;;14.20;76.50;;;;;;5010628;28;20690;-52
2021/05/22 08:34:27;;;;;;;1.40;1.07;;;14.40;76.00;;;;;;5015566;28;21211;-52
2021/05/22 08:36:54;;;;;;;3.70;1.10;;;14.40;75.50;;;;;;5002263;28;21216;-50
2021/05/22 08:39:21;;;;;;;4.13;1.87;;;14.40;75.90;;;;;;5009543;28;20628;-49
2021/05/22 08:41:49;;;;;;;3.90;1.23;;;14.40;76.70;;;;;;5009086;28;20644;-50
2021/05/22 08:44:16;;;;;;;4.53;1.60;;;14.30;76.00;;;;;;5010101;28;20624;-50
2021/05/22 08:46:43;;;;;;;6.60;0.97;;;14.30;76.90;;;;;;5009405;28;20710;-50
2021/05/22 08:49:10;;;;;;;2.20;1.07;;;14.30;76.90;;;;;;5009637;28;21010;-51
2021/05/22 08:51:38;;;;;;;3.63;1.60;;;14.50;77.40;;;;;;5021812;28;20706;-52
2021/05/22 08:54:04;;;;;;;6.40;3.47;;;14.60;77.00;;;;;;5014410;28;21241;-50
2021/05/22 08:56:31;;;;;;;1.90;0.87;;;14.70;76.60;;;;;;5009099;28;21493;-50
2021/05/22 08:58:58;;;;;;;3.57;1.30;;;14.60;75.40;;;;;;5008775;28;20662;-50
2021/05/22 09:01:25;;;;;;;2.33;1.03;;;14.60;75.90;;;;;;5010213;28;20679;-51
2021/05/22 09:03:54;;;;;;;4.50;2.00;;;14.70;74.90;;;;;;5009548;28;21176;-49
2021/05/22 09:06:21;;;;;;;1.77;1.27;;;14.90;75.70;;;;;;5009492;28;21244;-49
2021/05/22 09:08:59;;;;;;;3.63;1.53;;;15.10;73.60;;;;;;5005470;28;20636;-49
2021/05/22 09:11:26;;;;;;;1.00;0.73;;;15.10;72.50;;;;;;5009387;28;20632;-50
2021/05/22 09:13:53;;;;;;;2.00;1.03;;;15.10;72.50;;;;;;5009757;28;20925;-52
2021/05/22 09:16:21;;;;;;;3.47;1.07;;;15.10;72.50;;;;;;5008819;28;20749;-50
2021/05/22 09:18:49;;;;;;;1.90;1.13;;;15.20;71.00;;;;;;5007853;28;21215;-50
2021/05/22 09:21:16;;;;;;;3.83;1.70;;;15.20;68.20;;;;;;5006733;28;21179;-50
2021/05/22 09:23:46;;;;;;;3.00;1.70;;;15.10;69.70;;;;;;4990036;28;20612;-51
2021/05/22 09:26:14;;;;;;;5.37;1.27;;;15.10;69.50;;;;;;5021320;28;20654;-52
2021/05/22 09:28:42;;;;;;;2.93;1.43;;;15.00;71.10;;;;;;5028884;28;20692;-50
2021/05/22 09:31:12;;;;;;;4.00;1.67;;;15.20;70.60;;;;;;5020147;28;20981;-50
2021/05/22 09:33:39;;;;;;;3.90;1.20;;;15.30;71.20;;;;;;5009213;28;20745;-50
2021/05/22 09:36:08;;;;;;;2.50;1.30;;;15.30;70.30;;;;;;5009399;28;20667;-50
2021/05/22 09:38:35;;;;;;;1.90;1.03;;;15.30;70.00;;;;;;5009632;28;20710;-50
2021/05/22 09:41:14;;;;;;;2.47;0.90;;;15.40;69.50;;;;;;5009526;28;21035;-50
2021/05/22 09:43:41;;;;;;;1.23;0.70;;;15.30;68.10;;;;;;5008287;28;21156;-51
2021/05/22 09:46:08;;;;;;;2.60;1.10;;;15.40;68.40;;;;;;5009344;28;20651;-50
2021/05/22 09:48:36;;;;;;;2.30;1.57;;;15.60;67.30;;;;;;5008551;28;20678;-51
2021/05/22 09:51:03;;;;;;;4.23;0.90;;;15.60;67.50;;;;;;5008873;28;20628;-50
2021/05/22 09:53:31;;;;;;;1.60;0.70;;;15.70;68.00;;;;;;5008733;28;20672;-49
2021/05/22 09:56:16;;;;;;;2.23;1.30;;;15.60;65.50;;;;;;5008874;28;20718;-49
2021/05/22 09:58:43;;;;;;;2.43;0.77;;;15.30;66.30;;;;;;5008869;28;20628;-50
2021/05/22 10:01:10;;;;;;;2.53;1.30;;;15.10;67.10;;;;;;5008717;28;20628;-49
2021/05/22 10:03:37;;;;;;;4.00;1.00;;;15.10;68.30;;;;;;5008836;28;20616;-48
2021/05/22 10:06:04;;;;;;;3.77;1.37;;;15.20;68.50;;;;;;5008827;28;21098;-49
2021/05/22 10:08:31;;;;;;;2.03;1.10;;;15.30;68.70;;;;;;5009305;28;20640;-50
2021/05/22 10:10:58;;;;;;;2.23;1.37;;;15.30;68.50;;;;;;5009188;28;20627;-49
2021/05/22 10:13:26;;;;;;;2.00;1.00;;;15.30;68.10;;;;;;5008883;28;20655;-49
2021/05/22 10:15:53;;;;;;;1.97;1.10;;;15.40;67.80;;;;;;5017993;28;20655;-50
2021/05/22 10:18:21;;;;;;;6.10;1.40;;;15.50;67.40;;;;;;5006091;28;20728;-50
2021/05/22 10:20:48;;;;;;;2.57;0.90;;;15.70;66.90;;;;;;5018594;28;20631;-50
2021/05/22 10:23:15;;;;;;;11.17;1.23;;;15.70;65.90;;;;;;5010939;28;20624;-49
2021/05/22 10:25:41;;;;;;;2.50;1.10;;;15.80;65.90;;;;;;5010238;28;20705;-50
2021/05/22 10:28:09;;;;;;;2.30;0.90;;;15.70;66.40;;;;;;5023811;28;21024;-52
2021/05/22 10:30:36;;;;;;;2.77;1.20;;;15.70;65.60;;;;;;4996960;28;20689;-50
2021/05/22 10:33:04;;;;;;;7.23;1.50;;;15.80;65.20;;;;;;5018569;28;20655;-49
2021/05/22 10:35:39;;;;;;;3.13;1.33;;;16.00;65.00;;;;;;5016466;28;20738;-49
2021/05/22 10:38:06;;;;;;;2.07;1.13;;;16.20;63.80;;;;;;5010336;28;20639;-49
2021/05/22 10:40:46;;;;;;;3.67;1.20;;;16.30;61.10;;;;;;5026138;28;21128;-48
2021/05/22 10:43:13;;;;;;;2.20;1.40;;;16.50;62.00;;;;;;5016514;28;20633;-48
2021/05/22 10:45:42;;;;;;;5.63;1.10;;;16.70;60.60;;;;;;5019093;28;21149;-48
2021/05/22 10:48:43;;;;;;;1.83;0.77;;;16.80;60.00;;;;;;5024209;28;20623;-48
2021/05/22 10:51:21;;;;;;;2.30;1.20;;;16.60;60.40;;;;;;5002517;28;20653;-50
2021/05/22 10:53:53;;;;;;;1.43;1.23;;;16.20;62.70;;;;;;5003302;28;20651;-50
2021/05/22 10:56:20;;;;;;;3.73;1.27;;;15.90;66.20;;;;;;5012726;28;20657;-51
2021/05/22 10:59:15;;;;;;;4.70;1.20;;;15.70;68.90;;;;;;5027000;28;20630;-50
2021/05/22 11:01:45;;;;;;;1.20;0.90;;;15.70;69.20;;;;;;5021508;28;21000;-49
2021/05/22 11:04:28;;;;;;;3.60;0.87;;;15.70;69.40;;;;;;5015147;28;20631;-49
2021/05/22 11:06:55;;;;;;;4.77;1.43;;;15.70;69.40;;;;;;5001272;28;21211;-51
2021/05/22 11:09:41;;;;;;;2.67;1.37;;;15.60;71.10;;;;;;5025335;28;20681;-50
2021/05/22 11:12:41;;;;;;;2.87;1.20;;;15.70;71.60;;;;;;5004253;28;20715;-48
2021/05/22 11:15:47;;;;;;;2.50;1.10;;;16.00;71.50;;;;;;5006204;28;21217;-49
2021/05/22 11:18:16;;;;;;;4.23;1.50;;;16.30;69.80;;;;;;5012777;28;20681;-49
2021/05/22 11:20:45;;;;;;;1.60;0.70;;;16.60;67.90;;;;;;5023941;28;20973;-49
2021/05/22 11:23:11;;;;;;;3.60;1.20;;;16.60;65.50;;;;;;5024390;28;20685;-50
2021/05/22 11:25:46;;;;;;;1.47;1.00;;;16.60;64.20;;;;;;5021799;28;20697;-48
2021/05/22 11:28:18;;;;;;;5.70;1.50;;;16.60;63.90;;;;;;5015267;28;20627;-50
2021/05/22 11:30:50;;;;;;;3.63;1.37;;;16.50;63.20;;;;;;5019307;28;20628;-51
2021/05/22 11:33:30;;;;;;;2.37;0.73;;;16.30;64.30;;;;;;5029616;28;20655;-54
2021/05/22 11:35:57;;;;;;;1.47;1.37;;;16.20;65.40;;;;;;5016004;28;20720;-48
2021/05/22 11:38:34;;;;;;;1.27;0.93;;;16.40;65.30;;;;;;5025268;28;21168;-48
2021/05/22 11:41:29;;;;;;;1.13;0.90;;;16.60;63.60;;;;;;5018683;28;20626;-55
2021/05/22 11:44:06;;;;;;;5.40;0.70;;;16.80;63.00;;;;;;5019552;28;20620;-50
2021/05/22 11:46:33;;;;;;;2.40;1.40;;;17.20;60.40;;;;;;5016240;28;21212;-49
2021/05/22 11:49:00;;;;;;;2.60;1.33;;;17.40;59.20;;;;;;5016254;28;20624;-48
2021/05/22 11:51:28;;;;;;;1.10;0.80;;;17.80;58.40;;;;;;5030585;28;20619;-50
2021/05/22 11:53:56;;;;;;;6.50;1.00;;;18.40;55.90;;;;;;5020022;28;20663;-49
2021/05/22 11:56:23;;;;;;;6.40;1.10;;;18.60;55.60;;;;;;5021511;28;20660;-48
2021/05/22 11:58:51;;;;;;;2.10;0.93;;;18.60;55.70;;;;;;5027981;28;20631;-49
2021/05/22 12:01:18;;;;;;;1.23;0.80;;;18.20;55.20;;;;;;5017062;28;20620;-49
2021/05/22 12:03:46;;;;;;;1.23;0.60;;;17.90;56.60;;;;;;5022836;28;20615;-48
2021/05/22 12:06:23;;;;;;;1.80;1.10;;;17.60;56.50;;;;;;5024533;28;20771;-49
2021/05/22 12:09:08;;;;;;;1.73;0.80;;;17.30;57.30;;;;;;5027268;28;20639;-48
2021/05/22 12:11:37;;;;;;;4.77;1.40;;;17.00;58.00;;;;;;5005838;28;20685;-48
2021/05/22 12:14:04;;;;;;;2.20;1.07;;;16.70;58.40;;;;;;5022297;28;20644;-48
2021/05/22 12:16:31;;;;;;;2.10;1.40;;;16.50;58.30;;;;;;5009808;28;20659;-49
2021/05/22 12:18:58;;;;;;;1.37;0.80;;;16.30;58.50;;;;;;5025869;28;21319;-48
2021/05/22 12:21:28;;;;;;;3.00;1.50;;;16.10;62.60;;;;;;5016366;28;20697;-48
2021/05/22 12:24:01;;;;;;;1.70;0.93;;;15.80;66.40;;;;;;5027155;28;21094;-53
2021/05/22 12:26:27;;;;;;;3.73;0.97;;;15.60;69.70;;;;;;5024839;28;20662;-49
2021/05/22 12:28:54;;;;;;;1.80;0.60;;;15.60;71.60;;;;;;5017919;28;20635;-48
2021/05/22 12:31:21;;;;;;;1.93;0.70;;;15.80;72.20;;;;;;5023003;28;21025;-48
2021/05/22 12:34:01;;;;;;;2.90;0.90;;;16.10;71.20;;;;;;5025168;28;20674;-49
2021/05/22 12:36:29;;;;;;;1.80;1.13;;;16.30;68.20;;;;;;4992527;28;20682;-48
2021/05/22 12:38:56;;;;;;;3.80;1.03;;;16.40;65.20;;;;;;5007815;28;20627;-49
2021/05/22 12:41:33;;;;;;;3.10;0.73;;;17.10;64.90;;;;;;5019435;28;20624;-49
2021/05/22 12:44:00;;;;;;;12.93;1.13;;;17.90;59.70;;;;;;5027997;28;20627;-50
2021/05/22 12:46:27;;;;;;;2.70;0.83;;;18.10;58.10;;;;;;5015182;28;20652;-49
2021/05/22 12:49:07;;;;;;;3.60;1.33;;;18.10;58.30;;;;;;5022011;28;21242;-48
2021/05/22 12:51:35;;;;;;;6.00;0.97;;;18.10;57.80;;;;;;5017081;28;20685;-49
2021/05/22 12:54:29;;;;;;;2.47;1.63;;;18.20;56.80;;;;;;5004769;28;20724;-49